aviador You're here:

FSIA Decoded Metar

MAHE in SEYCHELLES
Report Time2017-12-18 08:00:00
UTC Time2017-12-18 09:05:26
Flight Rules vfr VFR
Wind250° at 04 kt
W.Decomp.*RWY 31: 2.3 kt HW 3.3 kt LCW
W.Rank250° ranks 21
Current wind is below 250° avg. (5.2)
Visibility9999 m
Phenomena:Light Shower Rain
Clouds:Few CB 014 Hf
Scattered 016 Hf
Expected CloudBase > 800 ft AGL from Temp-Dew spread
CeilingNone
Temp27°C (ISA +12)
Dew Point25°C (89% RH)
Heat Index30.6°C
QNH1013 hPa
Density Alt1,811 ft
Elevation10 ft
Report Wrong Elevation
Raw Report
FSIA 180800Z 25004KT 9999 -SHRA FEW014CB SCT016 27/25 Q1013
NOSIG=

Extra information for FSIA:More info

Metar Taf Metar & Taf Last 4 Metars F.Rules Stats Wind Profile Meteogram Temp Stats Airport Information Weather charts Add Link Nearby VenuesMetar ALERT Operation Metar Decoded Social comments